createdAt,value
2023-05-20T00:00:35.435Z,14.55
2023-05-20T00:03:02.103Z,14.54
2023-05-20T00:05:28.663Z,14.52
2023-05-20T00:07:55.321Z,14.50
2023-05-20T00:10:21.849Z,14.50
2023-05-20T00:12:48.358Z,14.38
2023-05-20T00:15:14.906Z,14.37
2023-05-20T00:17:41.552Z,14.35
2023-05-20T00:20:08.538Z,14.33
2023-05-20T00:22:35.041Z,14.31
2023-05-20T00:25:01.616Z,14.31
2023-05-20T00:27:28.151Z,14.27
2023-05-20T00:29:54.720Z,14.28
2023-05-20T00:32:21.306Z,14.29
2023-05-20T00:35:00.692Z,14.21
2023-05-20T00:37:27.803Z,14.21
2023-05-20T00:39:54.421Z,14.17
2023-05-20T00:42:30.018Z,14.10
2023-05-20T00:44:56.721Z,14.11
2023-05-20T00:47:30.548Z,13.98
2023-05-20T00:49:57.747Z,13.94
2023-05-20T00:52:25.406Z,13.94
2023-05-20T00:54:52.583Z,13.89
2023-05-20T00:57:20.056Z,13.90
2023-05-20T00:59:46.929Z,13.87
2023-05-20T01:02:13.469Z,13.81
2023-05-20T01:04:40.177Z,13.73
2023-05-20T01:07:07.344Z,13.74
2023-05-20T01:09:34.076Z,13.76
2023-05-20T01:12:09.852Z,13.63
2023-05-20T01:14:42.972Z,13.51
2023-05-20T01:17:12.610Z,13.50
2023-05-20T01:19:44.124Z,13.44
2023-05-20T01:22:12.671Z,13.46
2023-05-20T01:24:44.177Z,13.43
2023-05-20T01:27:13.408Z,13.39
2023-05-20T01:29:41.225Z,13.38
2023-05-20T01:32:13.809Z,13.42
2023-05-20T01:34:41.798Z,13.38
2023-05-20T01:37:10.274Z,13.39
2023-05-20T01:39:40.508Z,13.27
2023-05-20T01:42:08.366Z,13.19
2023-05-20T01:44:35.213Z,13.14
2023-05-20T01:47:01.858Z,13.10
2023-05-20T01:49:28.878Z,12.97
2023-05-20T01:51:55.928Z,12.94
2023-05-20T01:54:22.481Z,12.97
2023-05-20T01:56:50.011Z,12.98
2023-05-20T01:59:16.810Z,12.92
2023-05-20T02:01:43.505Z,12.85
2023-05-20T02:04:10.111Z,12.80
2023-05-20T02:06:36.566Z,12.76
2023-05-20T02:09:03.082Z,12.72
2023-05-20T02:11:29.565Z,12.52
2023-05-20T02:13:56.028Z,12.52
2023-05-20T02:16:22.950Z,12.48
2023-05-20T02:18:51.633Z,12.35
2023-05-20T02:21:18.312Z,12.35
2023-05-20T02:23:45.230Z,12.31
2023-05-20T02:26:11.806Z,12.30
2023-05-20T02:28:41.734Z,12.37
2023-05-20T02:31:08.215Z,12.47
2023-05-20T02:33:35.090Z,12.62
2023-05-20T02:36:02.003Z,12.67
2023-05-20T02:38:29.124Z,12.68
2023-05-20T02:40:56.719Z,12.67
2023-05-20T02:43:23.210Z,12.63
2023-05-20T02:45:49.800Z,12.59
2023-05-20T02:48:16.336Z,12.44
2023-05-20T02:50:42.953Z,12.31
2023-05-20T02:53:09.455Z,12.14
2023-05-20T02:55:36.904Z,12.06
2023-05-20T02:58:03.921Z,11.99
2023-05-20T03:00:40.648Z,12.11
2023-05-20T03:03:08.106Z,12.21
2023-05-20T03:05:37.829Z,12.23
2023-05-20T03:08:10.062Z,12.30
2023-05-20T03:10:37.893Z,12.32
2023-05-20T03:13:09.413Z,12.35
2023-05-20T03:15:36.782Z,12.29
2023-05-20T03:18:04.598Z,12.31
2023-05-20T03:20:32.701Z,12.23
2023-05-20T03:22:59.432Z,12.24
2023-05-20T03:25:26.341Z,12.27
2023-05-20T03:27:53.015Z,12.33
2023-05-20T03:30:19.745Z,12.28
2023-05-20T03:32:46.260Z,12.26
2023-05-20T03:35:13.038Z,12.28
2023-05-20T03:37:39.924Z,12.30
2023-05-20T03:40:07.759Z,12.32
2023-05-20T03:42:34.637Z,12.29
2023-05-20T03:45:01.283Z,12.33
2023-05-20T03:47:28.393Z,12.27
2023-05-20T03:49:55.166Z,12.29
2023-05-20T03:52:21.942Z,12.30
2023-05-20T03:54:48.464Z,12.27
2023-05-20T03:57:15.073Z,12.24
2023-05-20T03:59:41.797Z,12.24
2023-05-20T04:02:09.091Z,12.27
2023-05-20T04:04:36.253Z,12.31
2023-05-20T04:07:07.738Z,12.33
2023-05-20T04:09:34.316Z,12.33
2023-05-20T04:12:00.839Z,12.37
2023-05-20T04:14:27.349Z,12.33
2023-05-20T04:16:53.969Z,12.34
2023-05-20T04:19:20.910Z,12.35
2023-05-20T04:21:47.449Z,12.33
2023-05-20T04:24:14.589Z,12.31
2023-05-20T04:26:41.205Z,12.35
2023-05-20T04:29:07.698Z,12.37
2023-05-20T04:31:34.385Z,12.40
2023-05-20T04:34:00.953Z,12.41
2023-05-20T04:36:30.439Z,12.44
2023-05-20T04:38:57.313Z,12.45
2023-05-20T04:41:24.205Z,12.50
2023-05-20T04:43:50.718Z,12.52
2023-05-20T04:46:17.417Z,12.51
2023-05-20T04:48:44.030Z,12.52
2023-05-20T04:51:11.071Z,12.58
2023-05-20T04:53:38.159Z,12.59
2023-05-20T04:56:05.717Z,12.62
2023-05-20T04:58:33.471Z,12.63
2023-05-20T05:01:01.419Z,12.64
2023-05-20T05:03:28.192Z,12.67
2023-05-20T05:05:58.487Z,12.66
2023-05-20T05:08:26.686Z,12.65
2023-05-20T05:10:53.188Z,12.69
2023-05-20T05:13:19.730Z,12.72
2023-05-20T05:15:46.365Z,12.74
2023-05-20T05:18:12.948Z,12.77
2023-05-20T05:20:39.486Z,12.82
2023-05-20T05:23:06.045Z,12.79
2023-05-20T05:25:33.141Z,12.82
2023-05-20T05:27:59.827Z,12.84
2023-05-20T05:30:26.994Z,12.85
2023-05-20T05:32:53.705Z,12.85
2023-05-20T05:35:20.419Z,12.88
2023-05-20T05:37:46.976Z,12.89
2023-05-20T05:40:13.815Z,12.90
2023-05-20T05:42:40.483Z,12.92
2023-05-20T05:45:07.656Z,12.93
2023-05-20T05:47:34.208Z,12.94
2023-05-20T05:50:00.709Z,12.98
2023-05-20T05:52:27.446Z,13.02
2023-05-20T05:54:54.636Z,13.06
2023-05-20T05:57:21.164Z,13.07
2023-05-20T05:59:47.646Z,13.11
2023-05-20T06:02:14.773Z,13.14
2023-05-20T06:04:41.666Z,13.17
2023-05-20T06:07:08.260Z,13.20
2023-05-20T06:09:35.241Z,13.24
2023-05-20T06:12:02.460Z,13.28
2023-05-20T06:14:29.132Z,13.33
2023-05-20T06:16:55.851Z,13.38
2023-05-20T06:19:22.456Z,13.43
2023-05-20T06:21:49.062Z,13.52
2023-05-20T06:24:16.098Z,13.55
2023-05-20T06:26:42.764Z,13.58
2023-05-20T06:29:09.289Z,13.67
2023-05-20T06:31:35.867Z,13.72
2023-05-20T06:34:02.406Z,13.79
2023-05-20T06:36:29.527Z,13.85
2023-05-20T06:38:56.750Z,13.92
2023-05-20T06:41:23.198Z,13.93
2023-05-20T06:43:51.767Z,13.91
2023-05-20T06:46:19.791Z,13.91
2023-05-20T06:48:46.273Z,13.87
2023-05-20T06:51:12.808Z,13.85
2023-05-20T06:53:39.313Z,13.86
2023-05-20T06:56:05.989Z,13.89
2023-05-20T06:58:32.916Z,13.94
2023-05-20T07:00:59.368Z,13.96
2023-05-20T07:03:26.015Z,13.95
2023-05-20T07:05:52.932Z,13.99
2023-05-20T07:08:19.623Z,14.02
2023-05-20T07:10:46.822Z,14.02
2023-05-20T07:13:13.345Z,14.04
2023-05-20T07:15:40.000Z,14.06
2023-05-20T07:18:06.718Z,14.09
2023-05-20T07:20:33.351Z,14.15
2023-05-20T07:23:00.950Z,14.20
2023-05-20T07:25:27.564Z,14.28
2023-05-20T07:27:54.237Z,14.32
2023-05-20T07:30:21.016Z,14.34
2023-05-20T07:32:47.572Z,14.37
2023-05-20T07:35:14.105Z,14.39
2023-05-20T07:37:42.726Z,14.37
2023-05-20T07:40:09.762Z,14.35
2023-05-20T07:42:36.582Z,14.37
2023-05-20T07:45:03.300Z,14.46
2023-05-20T07:47:31.850Z,14.51
2023-05-20T07:49:58.700Z,14.58
2023-05-20T07:52:25.395Z,14.62
2023-05-20T07:54:51.921Z,14.58
2023-05-20T07:57:18.507Z,14.66
2023-05-20T07:59:45.167Z,14.74
2023-05-20T08:02:11.713Z,14.76
2023-05-20T08:04:38.402Z,14.78
2023-05-20T08:07:05.178Z,14.81
2023-05-20T08:09:34.632Z,14.87
2023-05-20T08:12:01.159Z,14.91
2023-05-20T08:14:27.646Z,14.97
2023-05-20T08:16:54.948Z,15.04
2023-05-20T08:19:21.810Z,15.16
2023-05-20T08:21:48.683Z,15.19
2023-05-20T08:24:15.145Z,15.14
2023-05-20T08:26:41.676Z,15.17
2023-05-20T08:29:08.408Z,15.21
2023-05-20T08:31:34.998Z,15.25
2023-05-20T08:34:01.615Z,15.29
2023-05-20T08:36:28.236Z,15.30
2023-05-20T08:38:55.774Z,15.36
2023-05-20T08:41:22.606Z,15.44
2023-05-20T08:43:51.366Z,15.51
2023-05-20T08:46:19.149Z,15.58
2023-05-20T08:48:45.914Z,15.63
2023-05-20T08:51:16.464Z,15.66
2023-05-20T08:53:43.115Z,15.69
2023-05-20T08:56:10.715Z,15.79
2023-05-20T08:58:37.564Z,15.83
2023-05-20T09:01:04.961Z,15.85
2023-05-20T09:03:32.215Z,15.86
2023-05-20T09:06:07.163Z,15.93
2023-05-20T09:08:33.739Z,15.98
2023-05-20T09:11:00.527Z,15.99
2023-05-20T09:13:27.762Z,16.04
2023-05-20T09:15:54.351Z,16.06
2023-05-20T09:18:20.937Z,16.09
2023-05-20T09:20:50.997Z,16.15
2023-05-20T09:23:19.500Z,16.22
2023-05-20T09:25:50.081Z,16.29
2023-05-20T09:28:17.832Z,16.19
2023-05-20T09:30:46.005Z,16.19
2023-05-20T09:33:13.550Z,16.08
2023-05-20T09:35:41.708Z,16.18
2023-05-20T09:38:10.568Z,16.25
2023-05-20T09:40:41.112Z,16.26
2023-05-20T09:43:08.761Z,16.31
2023-05-20T09:45:35.660Z,16.34
2023-05-20T09:48:05.704Z,16.36
2023-05-20T09:50:32.660Z,16.46
2023-05-20T09:53:03.723Z,16.50
2023-05-20T09:55:30.953Z,16.55
2023-05-20T09:58:01.814Z,16.51
2023-05-20T10:00:28.482Z,16.53
2023-05-20T10:02:55.169Z,16.53
2023-05-20T10:05:30.215Z,16.52
2023-05-20T10:08:15.460Z,16.50
2023-05-20T10:11:03.311Z,16.56
2023-05-20T10:13:52.016Z,16.75
2023-05-20T10:16:24.562Z,16.84
2023-05-20T10:19:31.964Z,16.82
2023-05-20T10:22:03.574Z,16.80
2023-05-20T10:24:38.206Z,16.82
2023-05-20T10:27:10.197Z,16.79
2023-05-20T10:29:51.514Z,16.92
2023-05-20T10:32:29.866Z,16.90
2023-05-20T10:35:05.933Z,16.89
2023-05-20T10:37:39.983Z,16.99
2023-05-20T10:40:11.663Z,16.98
2023-05-20T10:42:38.635Z,16.99
2023-05-20T10:45:07.430Z,16.94
2023-05-20T10:47:34.739Z,16.90
2023-05-20T10:50:02.185Z,16.89
2023-05-20T10:52:33.896Z,16.83
2023-05-20T10:55:01.496Z,16.71
2023-05-20T10:57:29.312Z,16.70
2023-05-20T10:59:56.524Z,16.79
2023-05-20T11:02:26.818Z,16.75
2023-05-20T11:04:55.922Z,16.74
2023-05-20T11:07:29.714Z,16.69
2023-05-20T11:09:59.773Z,16.65
2023-05-20T11:12:27.979Z,16.71
2023-05-20T11:14:55.024Z,16.78
2023-05-20T11:17:21.766Z,16.84
2023-05-20T11:19:48.818Z,16.89
2023-05-20T11:22:15.477Z,17.03
2023-05-20T11:24:42.027Z,17.16
2023-05-20T11:27:08.526Z,17.20
2023-05-20T11:29:35.332Z,17.20
2023-05-20T11:32:02.182Z,17.29
2023-05-20T11:34:36.798Z,17.42
2023-05-20T11:37:07.687Z,17.50
2023-05-20T11:39:34.236Z,17.44
2023-05-20T11:42:00.725Z,17.53
2023-05-20T11:44:27.301Z,17.65
2023-05-20T11:47:00.859Z,17.81
2023-05-20T11:49:27.961Z,17.91
2023-05-20T11:51:54.553Z,17.94
2023-05-20T11:54:23.831Z,18.06
2023-05-20T11:56:50.744Z,18.17
2023-05-20T11:59:17.403Z,18.21
2023-05-20T12:01:44.336Z,18.30
2023-05-20T12:04:13.299Z,18.41
2023-05-20T12:06:40.218Z,18.49
2023-05-20T12:09:08.581Z,18.58
2023-05-20T12:11:37.344Z,18.72
2023-05-20T12:14:04.530Z,18.90
2023-05-20T12:16:33.140Z,19.07
2023-05-20T12:19:00.293Z,19.30
2023-05-20T12:21:28.427Z,19.33
2023-05-20T12:23:58.269Z,19.35
2023-05-20T12:26:26.791Z,19.39
2023-05-20T12:28:53.992Z,19.36
2023-05-20T12:31:20.772Z,19.37
2023-05-20T12:33:47.468Z,19.23
2023-05-20T12:36:14.690Z,19.13
2023-05-20T12:38:41.382Z,19.15
2023-05-20T12:41:08.134Z,19.12
2023-05-20T12:43:36.942Z,18.95
2023-05-20T12:46:04.094Z,18.88
2023-05-20T12:48:30.888Z,18.95
2023-05-20T12:50:57.410Z,19.06
2023-05-20T12:53:23.918Z,19.24
2023-05-20T12:55:50.482Z,19.25
2023-05-20T12:58:16.960Z,19.23
2023-05-20T13:00:43.541Z,19.22
2023-05-20T13:03:10.293Z,19.28
2023-05-20T13:05:36.906Z,19.34
2023-05-20T13:08:03.507Z,19.31
2023-05-20T13:10:30.076Z,19.40
2023-05-20T13:12:56.580Z,19.48
2023-05-20T13:15:23.133Z,19.53
2023-05-20T13:17:49.831Z,19.43
2023-05-20T13:20:19.045Z,19.32
2023-05-20T13:22:46.423Z,19.29
2023-05-20T13:25:12.898Z,19.29
2023-05-20T13:27:39.486Z,19.32
2023-05-20T13:30:06.908Z,19.22
2023-05-20T13:32:33.745Z,19.12
2023-05-20T13:35:00.416Z,19.15
2023-05-20T13:37:26.960Z,19.12
2023-05-20T13:39:53.585Z,19.23
2023-05-20T13:42:22.016Z,19.33
2023-05-20T13:44:48.499Z,19.30
2023-05-20T13:47:15.089Z,19.41
2023-05-20T13:49:41.657Z,19.48
2023-05-20T13:52:08.303Z,19.53
2023-05-20T13:54:34.882Z,19.63
2023-05-20T13:57:01.878Z,19.64
2023-05-20T13:59:28.405Z,19.58
2023-05-20T14:01:54.907Z,19.67
2023-05-20T14:04:22.246Z,19.69
2023-05-20T14:06:48.910Z,19.49
2023-05-20T14:09:15.503Z,19.59
2023-05-20T14:11:42.204Z,19.93
2023-05-20T14:14:09.050Z,20.19
2023-05-20T14:16:36.942Z,20.10
2023-05-20T14:19:03.908Z,20.04
2023-05-20T14:21:31.452Z,20.06
2023-05-20T14:23:58.982Z,19.84
2023-05-20T14:26:25.829Z,19.71
2023-05-20T14:28:52.394Z,19.64
2023-05-20T14:31:18.915Z,19.75
2023-05-20T14:33:45.647Z,20.33
2023-05-20T14:36:12.186Z,20.85
2023-05-20T14:38:38.753Z,21.01
2023-05-20T14:41:05.356Z,20.82
2023-05-20T14:43:32.186Z,20.54
2023-05-20T14:45:58.994Z,20.16
2023-05-20T14:48:25.493Z,19.97
2023-05-20T14:50:52.009Z,20.36
2023-05-20T14:53:19.406Z,20.47
2023-05-20T14:55:45.987Z,20.17
2023-05-20T14:58:12.676Z,20.08
2023-05-20T15:00:39.899Z,19.91
2023-05-20T15:03:06.950Z,19.84
2023-05-20T15:05:33.557Z,19.85
2023-05-20T15:08:00.408Z,19.79
2023-05-20T15:10:27.026Z,19.71
2023-05-20T15:12:53.795Z,19.64
2023-05-20T15:15:21.602Z,19.68
2023-05-20T15:17:48.194Z,19.63
2023-05-20T15:20:14.757Z,19.66
2023-05-20T15:22:41.678Z,19.66
2023-05-20T15:25:08.411Z,19.60
2023-05-20T15:27:35.088Z,19.58
2023-05-20T15:30:01.671Z,19.63
2023-05-20T15:32:28.273Z,19.59
2023-05-20T15:34:54.818Z,19.59
2023-05-20T15:37:22.060Z,19.63
2023-05-20T15:39:48.644Z,19.61
2023-05-20T15:42:18.234Z,19.66
2023-05-20T15:44:45.703Z,19.76
2023-05-20T15:47:12.299Z,19.68
2023-05-20T15:49:39.147Z,19.78
2023-05-20T15:52:05.765Z,19.74
2023-05-20T15:54:32.977Z,19.69
2023-05-20T15:56:59.742Z,19.68
2023-05-20T15:59:26.202Z,19.65
2023-05-20T16:01:52.816Z,19.62
2023-05-20T16:04:19.758Z,19.58
2023-05-20T16:06:47.157Z,19.58
2023-05-20T16:09:13.742Z,19.57
2023-05-20T16:11:40.410Z,19.43
2023-05-20T16:14:07.002Z,19.30
2023-05-20T16:16:35.880Z,19.25
2023-05-20T16:19:02.931Z,19.16
2023-05-20T16:21:29.424Z,19.12
2023-05-20T16:23:55.991Z,19.10
2023-05-20T16:26:22.766Z,19.06
2023-05-20T16:28:49.238Z,18.92
2023-05-20T16:31:16.290Z,18.88
2023-05-20T16:33:42.942Z,18.79
2023-05-20T16:36:09.437Z,18.79
2023-05-20T16:38:36.516Z,18.79
2023-05-20T16:41:03.184Z,18.80
2023-05-20T16:43:29.758Z,18.84
2023-05-20T16:45:56.320Z,18.86
2023-05-20T16:48:22.889Z,18.75
2023-05-20T16:50:49.441Z,18.79
2023-05-20T16:53:16.693Z,18.77
2023-05-20T16:55:43.363Z,18.73
2023-05-20T16:58:10.067Z,18.72
2023-05-20T17:00:36.538Z,18.70
2023-05-20T17:03:03.253Z,18.71
2023-05-20T17:05:29.838Z,18.69
2023-05-20T17:07:59.882Z,18.70
2023-05-20T17:10:28.569Z,18.73
2023-05-20T17:12:55.716Z,18.67
2023-05-20T17:15:23.548Z,18.66
2023-05-20T17:17:50.718Z,18.55
2023-05-20T17:20:17.467Z,18.44
2023-05-20T17:22:44.271Z,18.42
2023-05-20T17:25:11.209Z,18.45
2023-05-20T17:27:37.867Z,18.46
2023-05-20T17:30:04.799Z,18.44
2023-05-20T17:32:31.434Z,18.40
2023-05-20T17:34:57.960Z,18.36
2023-05-20T17:37:24.469Z,18.30
2023-05-20T17:39:51.152Z,18.26
2023-05-20T17:42:17.691Z,18.18
2023-05-20T17:44:44.204Z,18.11
2023-05-20T17:47:10.954Z,18.19
2023-05-20T17:49:37.516Z,18.18
2023-05-20T17:52:04.435Z,18.14
2023-05-20T17:54:31.036Z,18.14
2023-05-20T17:56:57.585Z,18.11
2023-05-20T17:59:24.288Z,18.08
2023-05-20T18:01:51.182Z,18.00
2023-05-20T18:04:18.157Z,17.91
2023-05-20T18:06:45.002Z,17.91
2023-05-20T18:09:11.680Z,17.87
2023-05-20T18:11:39.122Z,17.88
2023-05-20T18:14:05.656Z,17.91
2023-05-20T18:16:32.361Z,17.88
2023-05-20T18:18:59.006Z,17.80
2023-05-20T18:21:26.373Z,17.79
2023-05-20T18:23:53.004Z,17.77
2023-05-20T18:26:19.567Z,17.73
2023-05-20T18:28:46.273Z,17.72
2023-05-20T18:31:12.902Z,17.70
2023-05-20T18:33:40.943Z,17.65
2023-05-20T18:36:07.796Z,17.66
2023-05-20T18:38:34.305Z,17.69
2023-05-20T18:41:00.905Z,17.68
2023-05-20T18:43:27.461Z,17.64
2023-05-20T18:45:54.244Z,17.59
2023-05-20T18:48:26.607Z,17.59
2023-05-20T18:50:54.789Z,17.54
2023-05-20T18:53:21.630Z,17.52
2023-05-20T18:55:48.433Z,17.49
2023-05-20T18:58:15.045Z,17.43
2023-05-20T19:00:42.187Z,17.41
2023-05-20T19:03:08.817Z,17.33
2023-05-20T19:05:35.673Z,17.29
2023-05-20T19:08:04.540Z,17.22
2023-05-20T19:10:31.742Z,17.22
2023-05-20T19:12:58.382Z,17.18
2023-05-20T19:15:24.935Z,17.11
2023-05-20T19:17:51.464Z,17.02
2023-05-20T19:20:17.985Z,16.98
2023-05-20T19:22:44.545Z,16.97
2023-05-20T19:25:11.489Z,16.93
2023-05-20T19:27:38.042Z,16.90
2023-05-20T19:30:04.903Z,16.88
2023-05-20T19:32:31.382Z,16.85
2023-05-20T19:34:57.924Z,16.83
2023-05-20T19:37:24.449Z,16.77
2023-05-20T19:39:51.022Z,16.76
2023-05-20T19:42:17.573Z,16.66
2023-05-20T19:44:46.644Z,16.61
2023-05-20T19:47:13.316Z,16.56
2023-05-20T19:49:39.968Z,16.60
2023-05-20T19:52:07.320Z,16.54
2023-05-20T19:54:34.026Z,16.45
2023-05-20T19:57:00.777Z,16.46
2023-05-20T19:59:27.292Z,16.48
2023-05-20T20:01:53.976Z,16.42
2023-05-20T20:04:20.538Z,16.40
2023-05-20T20:06:48.095Z,16.39
2023-05-20T20:09:15.270Z,16.30
2023-05-20T20:11:43.319Z,16.27
2023-05-20T20:14:10.060Z,16.26
2023-05-20T20:16:36.980Z,16.25
2023-05-20T20:19:04.807Z,16.19
2023-05-20T20:21:31.449Z,16.15
2023-05-20T20:23:57.993Z,16.17
2023-05-20T20:26:25.881Z,16.07
2023-05-20T20:28:52.611Z,16.04
2023-05-20T20:31:19.232Z,16.05
2023-05-20T20:33:45.798Z,16.03
2023-05-20T20:36:12.316Z,16.00
2023-05-20T20:38:38.848Z,16.00
2023-05-20T20:41:05.455Z,15.97
2023-05-20T20:43:34.688Z,15.91
2023-05-20T20:46:01.410Z,15.85
2023-05-20T20:48:27.998Z,15.76
2023-05-20T20:50:54.810Z,15.76
2023-05-20T20:59:03.427Z,15.67
2023-05-20T21:01:29.992Z,15.61
2023-05-20T21:03:56.574Z,15.63
2023-05-20T21:06:23.145Z,15.66
2023-05-20T21:08:49.624Z,15.62
2023-05-20T21:11:17.692Z,15.57
2023-05-20T21:13:44.168Z,15.54
2023-05-20T21:16:10.723Z,15.55
2023-05-20T21:18:37.204Z,15.49
2023-05-20T21:21:04.120Z,15.47
2023-05-20T21:23:30.817Z,15.45
2023-05-20T21:25:57.278Z,15.45
2023-05-20T21:28:23.797Z,15.43
2023-05-20T21:30:50.377Z,15.37
2023-05-20T21:33:16.914Z,15.40
2023-05-20T21:35:43.435Z,15.41
2023-05-20T21:38:10.050Z,15.46
2023-05-20T21:40:36.516Z,15.44
2023-05-20T21:43:03.513Z,15.43
2023-05-20T21:45:30.014Z,15.40
2023-05-20T21:47:56.614Z,15.38
2023-05-20T21:50:23.424Z,15.30
2023-05-20T21:52:50.011Z,15.29
2023-05-20T21:55:17.461Z,15.28
2023-05-20T21:57:43.957Z,15.31
2023-05-20T22:00:11.376Z,15.28
2023-05-20T22:02:38.051Z,15.28
2023-05-20T22:05:05.083Z,15.26
2023-05-20T22:07:31.812Z,15.27
2023-05-20T22:09:58.608Z,15.29
2023-05-20T22:12:25.405Z,15.25
2023-05-20T22:14:51.908Z,15.21
2023-05-20T22:17:18.553Z,15.21
2023-05-20T22:19:45.154Z,15.19
2023-05-20T22:22:11.837Z,15.17
2023-05-20T22:24:38.477Z,15.07
2023-05-20T22:27:05.352Z,15.06
2023-05-20T22:29:32.378Z,15.09
2023-05-20T22:31:59.262Z,15.12
2023-05-20T22:34:26.105Z,15.07
2023-05-20T22:36:53.919Z,15.07
2023-05-20T22:39:21.551Z,15.08
2023-05-20T22:41:48.142Z,15.10
2023-05-20T22:44:14.802Z,15.07
2023-05-20T22:46:41.383Z,15.09
2023-05-20T22:49:07.975Z,15.05
2023-05-20T22:51:36.110Z,15.10
2023-05-20T22:54:02.626Z,15.13
2023-05-20T22:56:29.640Z,15.16
2023-05-20T22:58:56.147Z,15.15
2023-05-20T23:01:24.048Z,15.06
2023-05-20T23:03:53.124Z,15.07
2023-05-20T23:06:19.857Z,15.07
2023-05-20T23:08:47.169Z,15.11
2023-05-20T23:11:13.688Z,15.12
2023-05-20T23:13:40.736Z,15.12
2023-05-20T23:16:07.641Z,15.11
2023-05-20T23:18:34.227Z,15.11
2023-05-20T23:21:00.771Z,15.06
2023-05-20T23:23:31.297Z,15.05
2023-05-20T23:25:58.882Z,15.05
2023-05-20T23:28:25.523Z,15.05
2023-05-20T23:30:52.048Z,15.03
2023-05-20T23:33:24.458Z,15.03
2023-05-20T23:35:51.835Z,15.05
2023-05-20T23:38:18.391Z,15.03
2023-05-20T23:40:44.840Z,14.98
2023-05-20T23:43:11.354Z,14.95
2023-05-20T23:45:37.970Z,14.95
2023-05-20T23:48:05.643Z,14.96
2023-05-20T23:50:32.657Z,14.98
2023-05-20T23:52:59.640Z,14.96
2023-05-20T23:55:28.376Z,14.93
2023-05-20T23:57:54.980Z,14.89
